sensor_id;sensor_type;location;lat;lon;timestamp;P1;durP1;ratioP1;P2;durP2;ratioP2
13706;SDS011;6925;47.816;13.072;2022-12-29T00:01:46;2.00;;;1.02;;
13706;SDS011;6925;47.816;13.072;2022-12-29T00:07:08;2.97;;;0.73;;
13706;SDS011;6925;47.816;13.072;2022-12-29T00:09:41;3.28;;;0.88;;
13706;SDS011;6925;47.816;13.072;2022-12-29T00:12:09;5.15;;;0.70;;
13706;SDS011;6925;47.816;13.072;2022-12-29T00:14:54;1.67;;;0.60;;
13706;SDS011;6925;47.816;13.072;2022-12-29T00:17:50;1.50;;;0.68;;
13706;SDS011;6925;47.816;13.072;2022-12-29T00:20:25;3.15;;;0.90;;
13706;SDS011;6925;47.816;13.072;2022-12-29T00:23:12;1.25;;;0.55;;
13706;SDS011;6925;47.816;13.072;2022-12-29T00:25:57;1.45;;;0.50;;
13706;SDS011;6925;47.816;13.072;2022-12-29T00:28:56;2.35;;;0.60;;
13706;SDS011;6925;47.816;13.072;2022-12-29T00:31:46;3.22;;;1.05;;
13706;SDS011;6925;47.816;13.072;2022-12-29T00:34:34;2.65;;;0.75;;
13706;SDS011;6925;47.816;13.072;2022-12-29T00:37:36;1.33;;;0.60;;
13706;SDS011;6925;47.816;13.072;2022-12-29T00:40:24;3.03;;;0.85;;
13706;SDS011;6925;47.816;13.072;2022-12-29T00:43:11;1.90;;;0.80;;
13706;SDS011;6925;47.816;13.072;2022-12-29T00:45:56;1.60;;;0.70;;
13706;SDS011;6925;47.816;13.072;2022-12-29T00:48:29;2.20;;;0.73;;
13706;SDS011;6925;47.816;13.072;2022-12-29T00:51:15;2.92;;;0.70;;
13706;SDS011;6925;47.816;13.072;2022-12-29T00:53:46;3.65;;;0.82;;
13706;SDS011;6925;47.816;13.072;2022-12-29T00:56:14;1.52;;;0.60;;
13706;SDS011;6925;47.816;13.072;2022-12-29T00:58:41;1.67;;;0.80;;
13706;SDS011;6925;47.816;13.072;2022-12-29T01:01:15;2.78;;;0.80;;
13706;SDS011;6925;47.816;13.072;2022-12-29T01:03:51;0.95;;;0.50;;
13706;SDS011;6925;47.816;13.072;2022-12-29T01:06:19;1.65;;;0.60;;
13706;SDS011;6925;47.816;13.072;2022-12-29T01:48:16;0.93;;;0.52;;
13706;SDS011;6925;47.816;13.072;2022-12-29T01:50:52;2.03;;;0.65;;
13706;SDS011;6925;47.816;13.072;2022-12-29T01:53:30;0.90;;;0.50;;
13706;SDS011;6925;47.816;13.072;2022-12-29T01:56:03;2.05;;;0.70;;
13706;SDS011;6925;47.816;13.072;2022-12-29T01:58:40;2.15;;;0.50;;
13706;SDS011;6925;47.816;13.072;2022-12-29T02:01:18;1.30;;;0.60;;
13706;SDS011;6925;47.816;13.072;2022-12-29T02:07:13;1.48;;;0.65;;
13706;SDS011;6925;47.816;13.072;2022-12-29T02:09:57;2.10;;;0.80;;
13706;SDS011;6925;47.816;13.072;2022-12-29T02:12:39;2.40;;;0.70;;
13706;SDS011;6925;47.816;13.072;2022-12-29T02:15:23;2.00;;;0.88;;
13706;SDS011;6925;47.816;13.072;2022-12-29T02:18:28;2.63;;;0.90;;
13706;SDS011;6925;47.816;13.072;2022-12-29T02:21:31;2.28;;;0.85;;
13706;SDS011;6925;47.816;13.072;2022-12-29T02:38:34;3.08;;;1.30;;
13706;SDS011;6925;47.816;13.072;2022-12-29T02:41:17;2.50;;;0.90;;
13706;SDS011;6925;47.816;13.072;2022-12-29T02:44:38;3.38;;;1.00;;
13706;SDS011;6925;47.816;13.072;2022-12-29T04:49:09;2.65;;;0.90;;
13706;SDS011;6925;47.816;13.072;2022-12-29T10:42:25;2.30;;;0.82;;
13706;SDS011;6925;47.816;13.072;2022-12-29T10:45:02;2.35;;;1.13;;
13706;SDS011;6925;47.816;13.072;2022-12-29T10:47:33;3.90;;;1.10;;
13706;SDS011;6925;47.816;13.072;2022-12-29T12:20:47;3.35;;;1.20;;
13706;SDS011;6925;47.816;13.072;2022-12-29T12:24:15;5.88;;;2.10;;
13706;SDS011;6925;47.816;13.072;2022-12-29T13:37:06;2.63;;;1.15;;
13706;SDS011;6925;47.816;13.072;2022-12-29T13:40:03;2.17;;;0.93;;
13706;SDS011;6925;47.816;13.072;2022-12-29T13:42:58;2.90;;;0.98;;
13706;SDS011;6925;47.816;13.072;2022-12-29T13:45:55;3.33;;;1.10;;
13706;SDS011;6925;47.816;13.072;2022-12-29T13:48:34;2.35;;;0.90;;
13706;SDS011;6925;47.816;13.072;2022-12-29T13:51:15;3.70;;;0.90;;
13706;SDS011;6925;47.816;13.072;2022-12-29T13:54:01;3.90;;;1.08;;
13706;SDS011;6925;47.816;13.072;2022-12-29T13:56:49;2.60;;;1.10;;
13706;SDS011;6925;47.816;13.072;2022-12-29T14:00:13;3.17;;;1.42;;
13706;SDS011;6925;47.816;13.072;2022-12-29T14:13:31;3.65;;;1.10;;
13706;SDS011;6925;47.816;13.072;2022-12-29T14:16:21;2.83;;;1.15;;
13706;SDS011;6925;47.816;13.072;2022-12-29T14:19:04;4.07;;;1.10;;
13706;SDS011;6925;47.816;13.072;2022-12-29T14:21:38;3.30;;;1.38;;
13706;SDS011;6925;47.816;13.072;2022-12-29T14:26:53;5.95;;;1.50;;
13706;SDS011;6925;47.816;13.072;2022-12-29T14:32:20;4.88;;;1.60;;
13706;SDS011;6925;47.816;13.072;2022-12-29T14:38:07;2.75;;;1.40;;
13706;SDS011;6925;47.816;13.072;2022-12-29T14:40:52;5.55;;;1.10;;
13706;SDS011;6925;47.816;13.072;2022-12-29T14:43:59;6.72;;;1.73;;
13706;SDS011;6925;47.816;13.072;2022-12-29T14:46:43;3.38;;;1.20;;
13706;SDS011;6925;47.816;13.072;2022-12-29T14:49:19;2.38;;;1.13;;
13706;SDS011;6925;47.816;13.072;2022-12-29T14:51:48;3.47;;;1.30;;
13706;SDS011;6925;47.816;13.072;2022-12-29T14:57:10;4.30;;;1.50;;
13706;SDS011;6925;47.816;13.072;2022-12-29T14:59:45;5.30;;;2.15;;
13706;SDS011;6925;47.816;13.072;2022-12-29T15:02:17;5.90;;;2.00;;
13706;SDS011;6925;47.816;13.072;2022-12-29T15:04:50;3.60;;;1.58;;
13706;SDS011;6925;47.816;13.072;2022-12-29T15:07:23;8.02;;;2.05;;
13706;SDS011;6925;47.816;13.072;2022-12-29T15:09:53;6.30;;;3.13;;
13706;SDS011;6925;47.816;13.072;2022-12-29T15:12:33;3.60;;;1.63;;
13706;SDS011;6925;47.816;13.072;2022-12-29T15:15:18;3.65;;;1.67;;
13706;SDS011;6925;47.816;13.072;2022-12-29T15:17:48;3.92;;;2.05;;
13706;SDS011;6925;47.816;13.072;2022-12-29T15:20:25;4.10;;;1.65;;
13706;SDS011;6925;47.816;13.072;2022-12-29T15:22:55;6.30;;;2.67;;
13706;SDS011;6925;47.816;13.072;2022-12-29T15:25:33;4.72;;;2.25;;
13706;SDS011;6925;47.816;13.072;2022-12-29T15:28:04;6.82;;;3.35;;
13706;SDS011;6925;47.816;13.072;2022-12-29T15:30:33;4.32;;;1.88;;
13706;SDS011;6925;47.816;13.072;2022-12-29T18:06:38;12.45;;;4.88;;
